NJE221 EPKT-ESMT
Flight info
| Callsign | NJE221 |
|---|---|
| Flight time | 1h 11m |
| Altitude | 44000 |
| Route | LUMVE L619 NUDRO L617 GINOK DCT GOSOT DCT MISMA |
| Aircraft | C700/M-SBDGHM1RWXY/LB2 |
Departure
| Time | 2026-04-26 18:29 |
|---|---|
| Airport | Katowice Wojciech Korfanty International Airport (EPKT) |
Arrival
| Time | 2026-04-26 19:40 |
|---|---|
| Airport | Halmstad Airport (ESMT) |
| Time | Latitude | Longitude | Altitude | Speed | Heading |
|---|---|---|---|---|---|
| 2026-04-26 18:11 | 50.47303 | 19.07228 | 993 ft | 0 kts | 271° |
| 2026-04-26 18:20 | 50.47303 | 19.07226 | 995 ft | 1 kts | 271° |
| 2026-04-26 18:20 | 50.47302 | 19.07176 | 993 ft | 9 kts | 258° |
| 2026-04-26 18:20 | 50.47289 | 19.07138 | 993 ft | 0 kts | 227° |
| 2026-04-26 18:21 | 50.47288 | 19.07137 | 997 ft | 1 kts | 227° |
| 2026-04-26 18:22 | 50.47270 | 19.07107 | 996 ft | 8 kts | 227° |
| 2026-04-26 18:22 | 50.47233 | 19.07133 | 993 ft | 10 kts | 88° |
| 2026-04-26 18:22 | 50.47233 | 19.07269 | 993 ft | 14 kts | 88° |
| 2026-04-26 18:22 | 50.47247 | 19.07428 | 995 ft | 13 kts | 40° |
| 2026-04-26 18:23 | 50.47346 | 19.07443 | 994 ft | 16 kts | 0° |
| 2026-04-26 18:23 | 50.47425 | 19.07501 | 993 ft | 13 kts | 83° |
| 2026-04-26 18:23 | 50.47425 | 19.07674 | 993 ft | 18 kts | 90° |
| 2026-04-26 18:23 | 50.47425 | 19.07886 | 993 ft | 21 kts | 89° |
| 2026-04-26 18:24 | 50.47424 | 19.08134 | 994 ft | 24 kts | 90° |
| 2026-04-26 18:24 | 50.47425 | 19.08416 | 995 ft | 27 kts | 90° |
| 2026-04-26 18:24 | 50.47423 | 19.08717 | 996 ft | 23 kts | 90° |
| 2026-04-26 18:24 | 50.47422 | 19.08969 | 993 ft | 17 kts | 90° |
| 2026-04-26 18:25 | 50.47422 | 19.09053 | 993 ft | 0 kts | 90° |
| 2026-04-26 18:25 | 50.47422 | 19.09120 | 993 ft | 13 kts | 89° |
| 2026-04-26 18:25 | 50.47421 | 19.09307 | 993 ft | 15 kts | 88° |
| 2026-04-26 18:26 | 50.47470 | 19.09389 | 993 ft | 12 kts | 6° |
| 2026-04-26 18:26 | 50.47501 | 19.09391 | 993 ft | 0 kts | 1° |
| 2026-04-26 18:27 | 50.47513 | 19.09391 | 999 ft | 5 kts | 1° |
| 2026-04-26 18:28 | 50.47574 | 19.09373 | 997 ft | 13 kts | 327° |
| 2026-04-26 18:28 | 50.47598 | 19.09214 | 996 ft | 28 kts | 270° |
| 2026-04-26 18:28 | 50.47600 | 19.08380 | 999 ft | 123 kts | 270° |
| 2026-04-26 18:28 | 50.47582 | 19.06785 | 1540 ft | 162 kts | 270° |
| 2026-04-26 18:29 | 50.47581 | 19.04824 | 2581 ft | 190 kts | 275° |
| 2026-04-26 18:29 | 50.47605 | 19.02642 | 4004 ft | 208 kts | 275° |
| 2026-04-26 18:29 | 50.47627 | 19.00206 | 5177 ft | 244 kts | 274° |
| 2026-04-26 18:29 | 50.47626 | 18.97430 | 6274 ft | 255 kts | 272° |
| 2026-04-26 18:30 | 50.47603 | 18.94645 | 7525 ft | 262 kts | 274° |
| 2026-04-26 18:30 | 50.47606 | 18.91840 | 9534 ft | 257 kts | 275° |
| 2026-04-26 18:30 | 50.47579 | 18.88968 | 11178 ft | 273 kts | 275° |
| 2026-04-26 18:30 | 50.47530 | 18.85838 | 12573 ft | 296 kts | 275° |
| 2026-04-26 18:31 | 50.47477 | 18.82613 | 14498 ft | 296 kts | 275° |
| 2026-04-26 18:31 | 50.47438 | 18.79333 | 16105 ft | 304 kts | 275° |
| 2026-04-26 18:31 | 50.47401 | 18.75971 | 17683 ft | 312 kts | 275° |
| 2026-04-26 18:31 | 50.47354 | 18.72521 | 19125 ft | 320 kts | 275° |
| 2026-04-26 18:32 | 50.47301 | 18.69007 | 20409 ft | 324 kts | 274° |
| 2026-04-26 18:32 | 50.47378 | 18.65471 | 21602 ft | 324 kts | 281° |
| 2026-04-26 18:32 | 50.47796 | 18.61989 | 22798 ft | 325 kts | 288° |
| 2026-04-26 18:32 | 50.48539 | 18.58630 | 23930 ft | 328 kts | 295° |
| 2026-04-26 18:33 | 50.49601 | 18.55450 | 24882 ft | 331 kts | 302° |
| 2026-04-26 18:33 | 50.50970 | 18.52522 | 25813 ft | 335 kts | 309° |
| 2026-04-26 18:33 | 50.52633 | 18.49914 | 26735 ft | 342 kts | 317° |
| 2026-04-26 18:33 | 50.54501 | 18.47547 | 27629 ft | 347 kts | 319° |
| 2026-04-26 18:34 | 50.56394 | 18.45131 | 28265 ft | 359 kts | 318° |
| 2026-04-26 18:34 | 50.58398 | 18.42548 | 28279 ft | 385 kts | 318° |
| 2026-04-26 18:34 | 50.60544 | 18.39811 | 28284 ft | 408 kts | 319° |
| 2026-04-26 18:34 | 50.62780 | 18.36983 | 28278 ft | 415 kts | 319° |
| 2026-04-26 18:35 | 50.67272 | 18.31244 | 28279 ft | 416 kts | 319° |
| 2026-04-26 18:35 | 50.71754 | 18.25485 | 28278 ft | 415 kts | 317° |
| 2026-04-26 18:36 | 50.75655 | 18.18824 | 28271 ft | 413 kts | 306° |
| 2026-04-26 18:36 | 50.79130 | 18.11585 | 28273 ft | 413 kts | 307° |
| 2026-04-26 18:37 | 50.82609 | 18.04344 | 28275 ft | 417 kts | 306° |
| 2026-04-26 18:37 | 50.86102 | 17.97037 | 28275 ft | 414 kts | 306° |
| 2026-04-26 18:38 | 50.89586 | 17.89735 | 28274 ft | 418 kts | 306° |
| 2026-04-26 18:38 | 50.93057 | 17.82440 | 28283 ft | 411 kts | 306° |
| 2026-04-26 18:39 | 50.96518 | 17.75145 | 28286 ft | 414 kts | 306° |
| 2026-04-26 18:39 | 50.99975 | 17.67838 | 28275 ft | 416 kts | 306° |
| 2026-04-26 18:40 | 51.03453 | 17.60464 | 28278 ft | 416 kts | 306° |
| 2026-04-26 18:40 | 51.06909 | 17.53118 | 28278 ft | 416 kts | 306° |
| 2026-04-26 18:41 | 51.08647 | 17.49414 | 28556 ft | 419 kts | 306° |
| 2026-04-26 18:41 | 51.10388 | 17.45701 | 29501 ft | 420 kts | 306° |
| 2026-04-26 18:41 | 51.12097 | 17.42050 | 30708 ft | 411 kts | 306° |
| 2026-04-26 18:41 | 51.13906 | 17.38558 | 31708 ft | 409 kts | 311° |
| 2026-04-26 18:42 | 51.15961 | 17.35422 | 32526 ft | 410 kts | 317° |
| 2026-04-26 18:42 | 51.18230 | 17.32662 | 33323 ft | 411 kts | 322° |
| 2026-04-26 18:42 | 51.20690 | 17.30321 | 34059 ft | 414 kts | 328° |
| 2026-04-26 18:42 | 51.23318 | 17.28427 | 34750 ft | 416 kts | 334° |
| 2026-04-26 18:43 | 51.26025 | 17.26802 | 35416 ft | 415 kts | 335° |
| 2026-04-26 18:43 | 51.28729 | 17.25154 | 36056 ft | 413 kts | 335° |
| 2026-04-26 18:43 | 51.31396 | 17.23513 | 36603 ft | 413 kts | 335° |
| 2026-04-26 18:43 | 51.34084 | 17.21871 | 37139 ft | 413 kts | 335° |
| 2026-04-26 18:44 | 51.36772 | 17.20234 | 37648 ft | 413 kts | 335° |
| 2026-04-26 18:44 | 51.39458 | 17.18592 | 38127 ft | 413 kts | 335° |
| 2026-04-26 18:44 | 51.42142 | 17.16944 | 38593 ft | 413 kts | 335° |
| 2026-04-26 18:44 | 51.44829 | 17.15295 | 39012 ft | 413 kts | 335° |
| 2026-04-26 18:45 | 51.47516 | 17.13645 | 39323 ft | 414 kts | 335° |
| 2026-04-26 18:45 | 51.50203 | 17.11993 | 39624 ft | 414 kts | 336° |
| 2026-04-26 18:45 | 51.52896 | 17.10334 | 39959 ft | 414 kts | 336° |
| 2026-04-26 18:45 | 51.55579 | 17.08679 | 40273 ft | 414 kts | 336° |
| 2026-04-26 18:46 | 51.61019 | 17.05318 | 40282 ft | 418 kts | 336° |
| 2026-04-26 18:46 | 51.66407 | 17.01984 | 40277 ft | 414 kts | 336° |
| 2026-04-26 18:47 | 51.69100 | 17.00309 | 40466 ft | 416 kts | 336° |
| 2026-04-26 18:47 | 51.71800 | 16.98632 | 40781 ft | 416 kts | 336° |
| 2026-04-26 18:47 | 51.74500 | 16.96954 | 41048 ft | 416 kts | 336° |
| 2026-04-26 18:47 | 51.77206 | 16.95267 | 41322 ft | 417 kts | 336° |
| 2026-04-26 18:48 | 51.79912 | 16.93579 | 41626 ft | 417 kts | 336° |
| 2026-04-26 18:48 | 51.82618 | 16.91888 | 41909 ft | 417 kts | 336° |
| 2026-04-26 18:48 | 51.85325 | 16.90195 | 42163 ft | 417 kts | 336° |
| 2026-04-26 18:48 | 51.88035 | 16.88498 | 42421 ft | 418 kts | 336° |
| 2026-04-26 18:49 | 51.90743 | 16.86800 | 42672 ft | 418 kts | 336° |
| 2026-04-26 18:49 | 51.93457 | 16.85096 | 42922 ft | 419 kts | 337° |
| 2026-04-26 18:49 | 51.96175 | 16.83387 | 43156 ft | 419 kts | 337° |
| 2026-04-26 18:49 | 51.98899 | 16.81673 | 43291 ft | 422 kts | 337° |
| 2026-04-26 18:50 | 52.04439 | 16.78176 | 43296 ft | 432 kts | 337° |
| 2026-04-26 18:50 | 52.10073 | 16.74616 | 43303 ft | 432 kts | 337° |
| 2026-04-26 18:51 | 52.15635 | 16.71101 | 43295 ft | 427 kts | 337° |
| 2026-04-26 18:51 | 52.21214 | 16.67653 | 43297 ft | 431 kts | 337° |
| 2026-04-26 18:52 | 52.26833 | 16.64131 | 43304 ft | 434 kts | 337° |
| 2026-04-26 18:52 | 52.32456 | 16.60614 | 43301 ft | 431 kts | 337° |
| 2026-04-26 18:53 | 52.38029 | 16.57113 | 43288 ft | 428 kts | 337° |
| 2026-04-26 18:53 | 52.43604 | 16.53601 | 43291 ft | 432 kts | 337° |
| 2026-04-26 18:54 | 52.49239 | 16.50043 | 43299 ft | 434 kts | 337° |
| 2026-04-26 18:54 | 52.54834 | 16.46412 | 43297 ft | 431 kts | 336° |
| 2026-04-26 18:55 | 52.60363 | 16.42700 | 43313 ft | 428 kts | 336° |
| 2026-04-26 18:55 | 52.65887 | 16.38975 | 43308 ft | 430 kts | 336° |
| 2026-04-26 18:56 | 52.71422 | 16.35232 | 43310 ft | 431 kts | 336° |
| 2026-04-26 18:56 | 52.76972 | 16.31470 | 43311 ft | 432 kts | 336° |
| 2026-04-26 18:57 | 52.80654 | 16.28967 | 43291 ft | 432 kts | 336° |
| 2026-04-26 18:57 | 52.88108 | 16.23888 | 43322 ft | 434 kts | 336° |
| 2026-04-26 18:58 | 52.93687 | 16.20073 | 43314 ft | 433 kts | 336° |
| 2026-04-26 18:58 | 52.99233 | 16.16271 | 43312 ft | 430 kts | 336° |
| 2026-04-26 18:59 | 53.04739 | 16.12486 | 43308 ft | 428 kts | 336° |
| 2026-04-26 18:59 | 53.10266 | 16.08675 | 43315 ft | 431 kts | 336° |
| 2026-04-26 19:00 | 53.15815 | 16.04839 | 43313 ft | 433 kts | 336° |
| 2026-04-26 19:00 | 53.21384 | 16.00978 | 43306 ft | 432 kts | 336° |
| 2026-04-26 19:01 | 53.25987 | 15.97779 | 43305 ft | 430 kts | 336° |
| 2026-04-26 19:01 | 53.32392 | 15.93314 | 43307 ft | 428 kts | 336° |
| 2026-04-26 19:02 | 53.37010 | 15.90086 | 43305 ft | 430 kts | 336° |
| 2026-04-26 19:02 | 53.41614 | 15.86860 | 43312 ft | 433 kts | 336° |
| 2026-04-26 19:03 | 53.48127 | 15.82284 | 43315 ft | 433 kts | 336° |
| 2026-04-26 19:03 | 53.53646 | 15.78394 | 43311 ft | 428 kts | 336° |
| 2026-04-26 19:04 | 53.59147 | 15.74505 | 43307 ft | 430 kts | 336° |
| 2026-04-26 19:04 | 53.64683 | 15.70582 | 43312 ft | 434 kts | 336° |
| 2026-04-26 19:05 | 53.73027 | 15.64647 | 43329 ft | 432 kts | 336° |
| 2026-04-26 19:06 | 53.78547 | 15.60705 | 43307 ft | 430 kts | 336° |
| 2026-04-26 19:06 | 53.84037 | 15.56775 | 43302 ft | 428 kts | 336° |
| 2026-04-26 19:07 | 53.89545 | 15.52819 | 43305 ft | 431 kts | 336° |
| 2026-04-26 19:07 | 53.95081 | 15.48834 | 43308 ft | 433 kts | 335° |
| 2026-04-26 19:08 | 54.00641 | 15.44818 | 43309 ft | 434 kts | 335° |
| 2026-04-26 19:08 | 54.06142 | 15.40835 | 43308 ft | 431 kts | 335° |
| 2026-04-26 19:09 | 54.11675 | 15.36815 | 43295 ft | 428 kts | 335° |
| 2026-04-26 19:09 | 54.17126 | 15.32843 | 43296 ft | 431 kts | 335° |
| 2026-04-26 19:10 | 54.22698 | 15.28773 | 43301 ft | 434 kts | 335° |
| 2026-04-26 19:10 | 54.28204 | 15.24739 | 43299 ft | 432 kts | 335° |
| 2026-04-26 19:11 | 54.33755 | 15.20659 | 43203 ft | 431 kts | 335° |
| 2026-04-26 19:11 | 54.36497 | 15.18640 | 42925 ft | 426 kts | 335° |
| 2026-04-26 19:11 | 54.39172 | 15.16668 | 42447 ft | 422 kts | 335° |
| 2026-04-26 19:11 | 54.41855 | 15.14686 | 41924 ft | 418 kts | 335° |
| 2026-04-26 19:12 | 54.44511 | 15.12720 | 41398 ft | 413 kts | 335° |
| 2026-04-26 19:12 | 54.47139 | 15.10774 | 40904 ft | 410 kts | 335° |
| 2026-04-26 19:12 | 54.49754 | 15.08834 | 40424 ft | 409 kts | 335° |
| 2026-04-26 19:12 | 54.52372 | 15.06889 | 39957 ft | 411 kts | 335° |
| 2026-04-26 19:13 | 54.55001 | 15.04933 | 39499 ft | 412 kts | 335° |
| 2026-04-26 19:13 | 54.57638 | 15.02970 | 39052 ft | 413 kts | 335° |
| 2026-04-26 19:13 | 54.60277 | 15.01001 | 38539 ft | 414 kts | 334° |
| 2026-04-26 19:13 | 54.62915 | 14.99030 | 37990 ft | 413 kts | 334° |
| 2026-04-26 19:14 | 54.65554 | 14.97057 | 37446 ft | 413 kts | 334° |
| 2026-04-26 19:14 | 54.68192 | 14.95079 | 37297 ft | 413 kts | 334° |
| 2026-04-26 19:14 | 54.70861 | 14.93075 | 37295 ft | 424 kts | 334° |
| 2026-04-26 19:15 | 54.76313 | 14.88979 | 37289 ft | 427 kts | 334° |
| 2026-04-26 19:15 | 54.81708 | 14.84812 | 37286 ft | 422 kts | 332° |
| 2026-04-26 19:16 | 54.86989 | 14.80258 | 37259 ft | 426 kts | 332° |
| 2026-04-26 19:16 | 54.92316 | 14.75697 | 37276 ft | 425 kts | 332° |
| 2026-04-26 19:17 | 54.97587 | 14.71146 | 37270 ft | 422 kts | 332° |
| 2026-04-26 19:17 | 55.02876 | 14.66575 | 37270 ft | 426 kts | 332° |
| 2026-04-26 19:18 | 55.08195 | 14.61963 | 37274 ft | 426 kts | 332° |
| 2026-04-26 19:18 | 55.13479 | 14.57368 | 37273 ft | 423 kts | 332° |
| 2026-04-26 19:19 | 55.18739 | 14.52779 | 37274 ft | 423 kts | 332° |
| 2026-04-26 19:19 | 55.24028 | 14.48152 | 36806 ft | 424 kts | 331° |
| 2026-04-26 19:19 | 55.26634 | 14.45870 | 36250 ft | 414 kts | 331° |
| 2026-04-26 19:20 | 55.29145 | 14.43536 | 35704 ft | 405 kts | 326° |
| 2026-04-26 19:20 | 55.30652 | 14.41617 | 35287 ft | 403 kts | 320° |
| 2026-04-26 19:20 | 55.33508 | 14.37322 | 34494 ft | 405 kts | 319° |
| 2026-04-26 19:20 | 55.35720 | 14.34244 | 33845 ft | 407 kts | 321° |
| 2026-04-26 19:21 | 55.37984 | 14.31251 | 33176 ft | 408 kts | 321° |
| 2026-04-26 19:21 | 55.40223 | 14.28181 | 32511 ft | 408 kts | 320° |
| 2026-04-26 19:21 | 55.42437 | 14.25038 | 31866 ft | 409 kts | 320° |
| 2026-04-26 19:21 | 55.44667 | 14.21907 | 31236 ft | 411 kts | 321° |
| 2026-04-26 19:22 | 55.46918 | 14.18801 | 30623 ft | 412 kts | 321° |
| 2026-04-26 19:22 | 55.49178 | 14.15667 | 29979 ft | 413 kts | 321° |
| 2026-04-26 19:22 | 55.51412 | 14.12535 | 29305 ft | 409 kts | 321° |
| 2026-04-26 19:22 | 55.53663 | 14.09373 | 29280 ft | 423 kts | 321° |
| 2026-04-26 19:23 | 55.56000 | 14.06101 | 29262 ft | 428 kts | 321° |
| 2026-04-26 19:23 | 55.60620 | 13.99620 | 29261 ft | 429 kts | 320° |
| 2026-04-26 19:24 | 55.65294 | 13.93030 | 29262 ft | 430 kts | 320° |
| 2026-04-26 19:24 | 55.67604 | 13.89771 | 28876 ft | 416 kts | 320° |
| 2026-04-26 19:24 | 55.71968 | 13.83593 | 27828 ft | 393 kts | 320° |
| 2026-04-26 19:25 | 55.74106 | 13.80557 | 27329 ft | 394 kts | 320° |
| 2026-04-26 19:25 | 55.75548 | 13.78508 | 26971 ft | 393 kts | 320° |
| 2026-04-26 19:25 | 55.78368 | 13.74499 | 26057 ft | 388 kts | 320° |
| 2026-04-26 19:25 | 55.80453 | 13.71530 | 25397 ft | 383 kts | 320° |
| 2026-04-26 19:26 | 55.82566 | 13.68510 | 25278 ft | 399 kts | 320° |
| 2026-04-26 19:26 | 55.84753 | 13.65385 | 25276 ft | 403 kts | 320° |
| 2026-04-26 19:26 | 55.86928 | 13.62278 | 24834 ft | 397 kts | 320° |
| 2026-04-26 19:26 | 55.89032 | 13.59264 | 24140 ft | 380 kts | 320° |
| 2026-04-26 19:27 | 55.91048 | 13.56370 | 23383 ft | 366 kts | 320° |
| 2026-04-26 19:27 | 55.93014 | 13.53543 | 22586 ft | 361 kts | 320° |
| 2026-04-26 19:27 | 55.94964 | 13.50735 | 21816 ft | 360 kts | 320° |
| 2026-04-26 19:27 | 55.96912 | 13.47930 | 21068 ft | 359 kts | 320° |
| 2026-04-26 19:28 | 55.98851 | 13.45132 | 20336 ft | 357 kts | 320° |
| 2026-04-26 19:28 | 56.00768 | 13.42363 | 19625 ft | 352 kts | 320° |
| 2026-04-26 19:28 | 56.02678 | 13.39651 | 18922 ft | 349 kts | 323° |
| 2026-04-26 19:28 | 56.04900 | 13.37930 | 18153 ft | 353 kts | 344° |
| 2026-04-26 19:29 | 56.07355 | 13.37718 | 17377 ft | 355 kts | 358° |
| 2026-04-26 19:29 | 56.09803 | 13.38194 | 16625 ft | 352 kts | 3° |
| 2026-04-26 19:29 | 56.12204 | 13.38880 | 16002 ft | 347 kts | 5° |
| 2026-04-26 19:29 | 56.14572 | 13.39620 | 15376 ft | 345 kts | 5° |
| 2026-04-26 19:30 | 56.16926 | 13.39750 | 14746 ft | 336 kts | 347° |
| 2026-04-26 19:30 | 56.19075 | 13.38274 | 14125 ft | 330 kts | 329° |
| 2026-04-26 19:30 | 56.20973 | 13.35994 | 13459 ft | 327 kts | 323° |
| 2026-04-26 19:30 | 56.22166 | 13.34365 | 13028 ft | 325 kts | 321° |
| 2026-04-26 19:31 | 56.24517 | 13.30986 | 12151 ft | 322 kts | 321° |
| 2026-04-26 19:31 | 56.26247 | 13.28446 | 11516 ft | 321 kts | 320° |
| 2026-04-26 19:31 | 56.27966 | 13.25905 | 10880 ft | 318 kts | 320° |
| 2026-04-26 19:31 | 56.29546 | 13.23159 | 10294 ft | 320 kts | 306° |
| 2026-04-26 19:32 | 56.30608 | 13.19529 | 10278 ft | 336 kts | 296° |
| 2026-04-26 19:32 | 56.31579 | 13.15712 | 10276 ft | 334 kts | 297° |
| 2026-04-26 19:32 | 56.32690 | 13.12009 | 10272 ft | 337 kts | 303° |
| 2026-04-26 19:32 | 56.34009 | 13.08524 | 10273 ft | 336 kts | 306° |
| 2026-04-26 19:33 | 56.35339 | 13.05061 | 10274 ft | 336 kts | 304° |
| 2026-04-26 19:33 | 56.36578 | 13.01528 | 9687 ft | 322 kts | 302° |
| 2026-04-26 19:33 | 56.37682 | 12.98276 | 9001 ft | 289 kts | 303° |
| 2026-04-26 19:33 | 56.38711 | 12.95359 | 8333 ft | 263 kts | 304° |
| 2026-04-26 19:34 | 56.39674 | 12.92670 | 7677 ft | 249 kts | 303° |
| 2026-04-26 19:34 | 56.40609 | 12.90031 | 7036 ft | 249 kts | 303° |
| 2026-04-26 19:34 | 56.41533 | 12.87404 | 6405 ft | 246 kts | 303° |
| 2026-04-26 19:34 | 56.42449 | 12.84800 | 5750 ft | 244 kts | 302° |
| 2026-04-26 19:35 | 56.43432 | 12.82385 | 5098 ft | 236 kts | 312° |
| 2026-04-26 19:35 | 56.44615 | 12.80552 | 4998 ft | 211 kts | 322° |
| 2026-04-26 19:35 | 56.45831 | 12.79302 | 4986 ft | 193 kts | 333° |
| 2026-04-26 19:35 | 56.47070 | 12.78522 | 4993 ft | 189 kts | 342° |
| 2026-04-26 19:36 | 56.48408 | 12.78136 | 4973 ft | 201 kts | 352° |
| 2026-04-26 19:36 | 56.48888 | 12.78100 | 4840 ft | 208 kts | 355° |
| 2026-04-26 19:36 | 56.51283 | 12.78529 | 4060 ft | 202 kts | 2° |
| 2026-04-26 19:36 | 56.52658 | 12.78789 | 3586 ft | 197 kts | 3° |
| 2026-04-26 19:37 | 56.54013 | 12.79048 | 3108 ft | 195 kts | 4° |
| 2026-04-26 19:37 | 56.55361 | 12.79311 | 2681 ft | 193 kts | 4° |
| 2026-04-26 19:37 | 56.56687 | 12.79573 | 2412 ft | 193 kts | 4° |
| 2026-04-26 19:37 | 56.58040 | 12.79837 | 2142 ft | 197 kts | 5° |
| 2026-04-26 19:38 | 56.59358 | 12.80098 | 1864 ft | 190 kts | 5° |
| 2026-04-26 19:38 | 56.60648 | 12.80352 | 1620 ft | 177 kts | 5° |
| 2026-04-26 19:38 | 56.61808 | 12.80582 | 1363 ft | 161 kts | 5° |
| 2026-04-26 19:38 | 56.62905 | 12.80797 | 1144 ft | 157 kts | 5° |
| 2026-04-26 19:39 | 56.63922 | 12.80998 | 968 ft | 140 kts | 5° |
| 2026-04-26 19:39 | 56.64843 | 12.81179 | 751 ft | 127 kts | 4° |
| 2026-04-26 19:39 | 56.65710 | 12.81351 | 582 ft | 125 kts | 4° |
| 2026-04-26 19:39 | 56.66570 | 12.81514 | 418 ft | 124 kts | 3° |
| 2026-04-26 19:40 | 56.67432 | 12.81678 | 254 ft | 125 kts | 5° |
| 2026-04-26 19:40 | 56.68223 | 12.81863 | 98 ft | 103 kts | 3° |
| 2026-04-26 19:40 | 56.68797 | 12.81967 | 90 ft | 58 kts | 6° |
| 2026-04-26 19:40 | 56.69096 | 12.82034 | 87 ft | 21 kts | 10° |
| 2026-04-26 19:41 | 56.69133 | 12.82019 | 87 ft | 1 kts | 200° |
| 2026-04-26 19:41 | 56.69077 | 12.82008 | 86 ft | 15 kts | 184° |
| 2026-04-26 19:41 | 56.68932 | 12.81985 | 86 ft | 25 kts | 187° |
| 2026-04-26 19:41 | 56.68873 | 12.81973 | 88 ft | 26 kts | 185° |
| 2026-04-26 19:42 | 56.68548 | 12.81909 | 92 ft | 31 kts | 186° |
| 2026-04-26 19:42 | 56.68320 | 12.81865 | 91 ft | 35 kts | 186° |
| 2026-04-26 19:42 | 56.68162 | 12.81831 | 91 ft | 11 kts | 194° |
| 2026-04-26 19:42 | 56.68159 | 12.81699 | 92 ft | 14 kts | 289° |
| 2026-04-26 19:43 | 56.68180 | 12.81550 | 91 ft | 6 kts | 234° |
| 2026-04-26 19:43 | 56.68151 | 12.81555 | 92 ft | 6 kts | 176° |